sensor_id;sensor_type;location;lat;lon;timestamp;pressure;altitude;pressure_sealevel;temperature;humidity
18167;BME280;9208;42.688;23.404;2023-05-23T00:01:05;95361.84;;;14.03;100.00
18167;BME280;9208;42.688;23.404;2023-05-23T00:03:34;95363.59;;;14.01;100.00
18167;BME280;9208;42.688;23.404;2023-05-23T00:06:00;95356.84;;;13.96;100.00
18167;BME280;9208;42.688;23.404;2023-05-23T00:08:26;95352.09;;;13.86;100.00
18167;BME280;9208;42.688;23.404;2023-05-23T00:10:51;95348.06;;;13.87;100.00
18167;BME280;9208;42.688;23.404;2023-05-23T00:13:17;95348.56;;;13.85;100.00
18167;BME280;9208;42.688;23.404;2023-05-23T00:15:44;95354.84;;;13.86;100.00
18167;BME280;9208;42.688;23.404;2023-05-23T00:18:10;95354.09;;;13.91;100.00
18167;BME280;9208;42.688;23.404;2023-05-23T00:20:36;95364.13;;;13.94;100.00
18167;BME280;9208;42.688;23.404;2023-05-23T00:23:01;95355.59;;;13.97;100.00
18167;BME280;9208;42.688;23.404;2023-05-23T00:25:28;95357.09;;;14.04;100.00
18167;BME280;9208;42.688;23.404;2023-05-23T00:27:59;95358.81;;;14.12;100.00
18167;BME280;9208;42.688;23.404;2023-05-23T00:30:25;95356.31;;;14.03;100.00
18167;BME280;9208;42.688;23.404;2023-05-23T00:32:50;95360.09;;;14.00;100.00
18167;BME280;9208;42.688;23.404;2023-05-23T00:35:19;95347.06;;;14.01;100.00
18167;BME280;9208;42.688;23.404;2023-05-23T00:37:45;95344.56;;;14.03;100.00
18167;BME280;9208;42.688;23.404;2023-05-23T00:40:12;95348.31;;;13.94;100.00
18167;BME280;9208;42.688;23.404;2023-05-23T00:42:37;95347.31;;;13.97;100.00
18167;BME280;9208;42.688;23.404;2023-05-23T00:45:03;95346.31;;;13.89;100.00
18167;BME280;9208;42.688;23.404;2023-05-23T00:47:29;95348.06;;;13.81;100.00
18167;BME280;9208;42.688;23.404;2023-05-23T00:49:55;95342.31;;;13.85;100.00
18167;BME280;9208;42.688;23.404;2023-05-23T00:52:20;95344.56;;;13.81;100.00
18167;BME280;9208;42.688;23.404;2023-05-23T00:54:46;95336.28;;;13.75;100.00
18167;BME280;9208;42.688;23.404;2023-05-23T00:57:11;95345.06;;;13.74;100.00
18167;BME280;9208;42.688;23.404;2023-05-23T00:59:37;95357.59;;;13.86;100.00
18167;BME280;9208;42.688;23.404;2023-05-23T01:02:03;95360.06;;;13.84;100.00
18167;BME280;9208;42.688;23.404;2023-05-23T01:04:29;95362.09;;;13.78;100.00
18167;BME280;9208;42.688;23.404;2023-05-23T01:06:58;95349.56;;;13.71;100.00
18167;BME280;9208;42.688;23.404;2023-05-23T01:09:26;95356.31;;;13.65;100.00
18167;BME280;9208;42.688;23.404;2023-05-23T01:15:08;95349.78;;;13.57;100.00
18167;BME280;9208;42.688;23.404;2023-05-23T01:17:43;95354.56;;;13.51;100.00
18167;BME280;9208;42.688;23.404;2023-05-23T01:20:15;95344.53;;;13.42;100.00
18167;BME280;9208;42.688;23.404;2023-05-23T01:28:36;95362.31;;;13.52;100.00
18167;BME280;9208;42.688;23.404;2023-05-23T01:31:05;95351.31;;;13.52;100.00
18167;BME280;9208;42.688;23.404;2023-05-23T01:33:32;95351.06;;;13.56;100.00
18167;BME280;9208;42.688;23.404;2023-05-23T01:36:01;95351.31;;;13.52;100.00
18167;BME280;9208;42.688;23.404;2023-05-23T01:38:29;95353.06;;;13.50;100.00
18167;BME280;9208;42.688;23.404;2023-05-23T01:40:55;95344.31;;;13.51;100.00
18167;BME280;9208;42.688;23.404;2023-05-23T01:43:21;95340.03;;;13.50;100.00
18167;BME280;9208;42.688;23.404;2023-05-23T01:45:48;95343.31;;;13.49;100.00
18167;BME280;9208;42.688;23.404;2023-05-23T01:48:14;95346.28;;;13.34;100.00
18167;BME280;9208;42.688;23.404;2023-05-23T01:50:42;95339.50;;;13.30;100.00
18167;BME280;9208;42.688;23.404;2023-05-23T01:53:11;95336.03;;;13.35;100.00
18167;BME280;9208;42.688;23.404;2023-05-23T01:55:39;95339.75;;;13.26;100.00
18167;BME280;9208;42.688;23.404;2023-05-23T01:58:06;95343.78;;;13.31;100.00
18167;BME280;9208;42.688;23.404;2023-05-23T02:00:31;95339.50;;;13.30;100.00
18167;BME280;9208;42.688;23.404;2023-05-23T02:02:57;95346.53;;;13.31;100.00
18167;BME280;9208;42.688;23.404;2023-05-23T02:05:22;95344.75;;;13.39;100.00
18167;BME280;9208;42.688;23.404;2023-05-23T02:07:47;95338.78;;;13.46;100.00
18167;BME280;9208;42.688;23.404;2023-05-23T02:10:13;95339.78;;;13.54;100.00
18167;BME280;9208;42.688;23.404;2023-05-23T02:12:38;95345.03;;;13.52;100.00
18167;BME280;9208;42.688;23.404;2023-05-23T02:15:04;95334.28;;;13.54;100.00
18167;BME280;9208;42.688;23.404;2023-05-23T02:17:30;95334.53;;;13.56;100.00
18167;BME280;9208;42.688;23.404;2023-05-23T02:19:55;95342.03;;;13.61;100.00
18167;BME280;9208;42.688;23.404;2023-05-23T02:22:24;95345.53;;;13.56;100.00
18167;BME280;9208;42.688;23.404;2023-05-23T02:24:50;95341.53;;;13.57;100.00
18167;BME280;9208;42.688;23.404;2023-05-23T02:27:17;95341.28;;;13.55;100.00
18167;BME280;9208;42.688;23.404;2023-05-23T02:29:42;95345.03;;;13.52;100.00
18167;BME280;9208;42.688;23.404;2023-05-23T02:32:08;95341.06;;;13.53;100.00
18167;BME280;9208;42.688;23.404;2023-05-23T02:34:33;95338.53;;;13.55;100.00
18167;BME280;9208;42.688;23.404;2023-05-23T02:36:59;95336.03;;;13.57;100.00
18167;BME280;9208;42.688;23.404;2023-05-23T02:39:24;95328.50;;;13.35;100.00
18167;BME280;9208;42.688;23.404;2023-05-23T02:41:49;95336.00;;;13.40;100.00
18167;BME280;9208;42.688;23.404;2023-05-23T02:44:15;95340.50;;;13.38;100.00
18167;BME280;9208;42.688;23.404;2023-05-23T02:46:43;95332.22;;;13.32;100.00
18167;BME280;9208;42.688;23.404;2023-05-23T02:49:09;95334.50;;;13.23;100.00
18167;BME280;9208;42.688;23.404;2023-05-23T02:51:34;95330.47;;;13.13;100.00
18167;BME280;9208;42.688;23.404;2023-05-23T02:54:00;95327.44;;;13.11;100.00
18167;BME280;9208;42.688;23.404;2023-05-23T02:56:25;95339.94;;;13.01;100.00
18167;BME280;9208;42.688;23.404;2023-05-23T02:58:54;95339.41;;;12.97;100.00
18167;BME280;9208;42.688;23.404;2023-05-23T03:01:20;95336.38;;;12.95;100.00
18167;BME280;9208;42.688;23.404;2023-05-23T03:03:45;95327.34;;;12.89;100.00
18167;BME280;9208;42.688;23.404;2023-05-23T03:06:11;95327.03;;;12.70;100.00
18167;BME280;9208;42.688;23.404;2023-05-23T03:08:41;95331.75;;;12.64;100.00
18167;BME280;9208;42.688;23.404;2023-05-23T03:11:07;95334.72;;;12.55;100.00
18167;BME280;9208;42.688;23.404;2023-05-23T03:13:33;95329.72;;;12.59;100.00
18167;BME280;9208;42.688;23.404;2023-05-23T03:15:59;95332.44;;;12.54;100.00
18167;BME280;9208;42.688;23.404;2023-05-23T03:18:24;95332.44;;;12.48;100.00
18167;BME280;9208;42.688;23.404;2023-05-23T03:20:50;95337.66;;;12.41;100.00
18167;BME280;9208;42.688;23.404;2023-05-23T03:23:15;95335.16;;;12.43;100.00
18167;BME280;9208;42.688;23.404;2023-05-23T03:25:42;95337.66;;;12.41;100.00
18167;BME280;9208;42.688;23.404;2023-05-23T03:28:07;95330.59;;;12.29;100.00
18167;BME280;9208;42.688;23.404;2023-05-23T03:30:33;95342.06;;;12.27;100.00
18167;BME280;9208;42.688;23.404;2023-05-23T03:32:58;95350.28;;;12.22;100.00
18167;BME280;9208;42.688;23.404;2023-05-23T03:35:24;95350.31;;;12.27;100.00
18167;BME280;9208;42.688;23.404;2023-05-23T03:37:49;95353.84;;;12.33;100.00
18167;BME280;9208;42.688;23.404;2023-05-23T03:40:14;95354.59;;;12.34;100.00
18167;BME280;9208;42.688;23.404;2023-05-23T03:42:40;95357.13;;;12.37;100.00
18167;BME280;9208;42.688;23.404;2023-05-23T03:45:06;95353.91;;;12.44;100.00
18167;BME280;9208;42.688;23.404;2023-05-23T03:47:31;95346.91;;;12.43;100.00
18167;BME280;9208;42.688;23.404;2023-05-23T03:49:57;95348.13;;;12.42;100.00
18167;BME280;9208;42.688;23.404;2023-05-23T03:52:22;95357.19;;;12.54;100.00
18167;BME280;9208;42.688;23.404;2023-05-23T03:54:47;95364.69;;;12.48;100.00
18167;BME280;9208;42.688;23.404;2023-05-23T03:57:13;95368.72;;;12.52;100.00
18167;BME280;9208;42.688;23.404;2023-05-23T03:59:39;95370.25;;;12.59;100.00
18167;BME280;9208;42.688;23.404;2023-05-23T04:02:04;95366.25;;;12.60;100.00
18167;BME280;9208;42.688;23.404;2023-05-23T04:04:30;95360.50;;;12.63;100.00
18167;BME280;9208;42.688;23.404;2023-05-23T04:06:56;95360.78;;;12.71;100.00
18167;BME280;9208;42.688;23.404;2023-05-23T04:09:22;95361.59;;;12.77;100.00
18167;BME280;9208;42.688;23.404;2023-05-23T04:11:48;95361.06;;;12.78;100.00
18167;BME280;9208;42.688;23.404;2023-05-23T04:14:14;95362.81;;;12.76;100.00
18167;BME280;9208;42.688;23.404;2023-05-23T04:16:39;95356.56;;;12.75;100.00
18167;BME280;9208;42.688;23.404;2023-05-23T04:19:09;95355.34;;;12.82;100.00
18167;BME280;9208;42.688;23.404;2023-05-23T04:21:37;95367.59;;;12.86;100.00
18167;BME280;9208;42.688;23.404;2023-05-23T04:24:03;95367.88;;;12.88;100.00
18167;BME280;9208;42.688;23.404;2023-05-23T04:26:28;95372.84;;;12.79;100.00
18167;BME280;9208;42.688;23.404;2023-05-23T04:28:54;95365.09;;;12.83;100.00
18167;BME280;9208;42.688;23.404;2023-05-23T04:31:20;95367.59;;;12.81;100.00
18167;BME280;9208;42.688;23.404;2023-05-23T04:33:47;95369.63;;;12.91;100.00
18167;BME280;9208;42.688;23.404;2023-05-23T04:36:13;95374.91;;;12.95;100.00
18167;BME280;9208;42.688;23.404;2023-05-23T04:38:38;95373.66;;;12.96;100.00
18167;BME280;9208;42.688;23.404;2023-05-23T04:41:05;95365.69;;;13.03;100.00
18167;BME280;9208;42.688;23.404;2023-05-23T04:43:31;95375.50;;;13.15;100.00
18167;BME280;9208;42.688;23.404;2023-05-23T04:46:01;95379.00;;;13.10;100.00
18167;BME280;9208;42.688;23.404;2023-05-23T04:48:29;95376.00;;;13.14;100.00
18167;BME280;9208;42.688;23.404;2023-05-23T04:50:55;95379.25;;;13.12;100.00
18167;BME280;9208;42.688;23.404;2023-05-23T04:53:21;95376.25;;;13.16;100.00
18167;BME280;9208;42.688;23.404;2023-05-23T04:55:47;95383.28;;;13.28;100.00
18167;BME280;9208;42.688;23.404;2023-05-23T04:58:13;95389.31;;;13.32;100.00
18167;BME280;9208;42.688;23.404;2023-05-23T05:00:38;95387.56;;;13.34;100.00
18167;BME280;9208;42.688;23.404;2023-05-23T05:03:03;95387.81;;;13.31;100.00
18167;BME280;9208;42.688;23.404;2023-05-23T05:05:29;95385.84;;;13.42;100.00
18167;BME280;9208;42.688;23.404;2023-05-23T05:07:54;95391.63;;;13.50;100.00
18167;BME280;9208;42.688;23.404;2023-05-23T05:10:20;95389.34;;;13.43;100.00
18167;BME280;9208;42.688;23.404;2023-05-23T05:12:46;95397.59;;;13.43;100.00
18167;BME280;9208;42.688;23.404;2023-05-23T05:15:15;95394.09;;;13.48;100.00
18167;BME280;9208;42.688;23.404;2023-05-23T05:17:42;95401.88;;;13.44;100.00
18167;BME280;9208;42.688;23.404;2023-05-23T05:20:08;95402.88;;;13.46;100.00
18167;BME280;9208;42.688;23.404;2023-05-23T05:22:37;95402.66;;;13.55;100.00
18167;BME280;9208;42.688;23.404;2023-05-23T05:25:07;95397.13;;;13.50;100.00
18167;BME280;9208;42.688;23.404;2023-05-23T05:27:33;95391.13;;;13.51;100.00
18167;BME280;9208;42.688;23.404;2023-05-23T05:29:59;95394.13;;;13.59;100.00
18167;BME280;9208;42.688;23.404;2023-05-23T05:32:29;95399.38;;;13.57;100.00
18167;BME280;9208;42.688;23.404;2023-05-23T05:34:59;95398.66;;;13.62;100.00
18167;BME280;9208;42.688;23.404;2023-05-23T05:37:24;95398.63;;;13.67;100.00
18167;BME280;9208;42.688;23.404;2023-05-23T05:39:51;95392.13;;;13.65;100.00
18167;BME280;9208;42.688;23.404;2023-05-23T05:42:17;95401.19;;;13.71;100.00
18167;BME280;9208;42.688;23.404;2023-05-23T05:44:43;95400.44;;;13.76;100.00
18167;BME280;9208;42.688;23.404;2023-05-23T05:47:08;95402.94;;;13.79;100.00
18167;BME280;9208;42.688;23.404;2023-05-23T05:49:33;95406.69;;;13.82;100.00
18167;BME280;9208;42.688;23.404;2023-05-23T05:51:59;95403.94;;;13.87;100.00
18167;BME280;9208;42.688;23.404;2023-05-23T05:54:24;95405.19;;;13.92;100.00
18167;BME280;9208;42.688;23.404;2023-05-23T05:56:50;95403.19;;;13.92;100.00
18167;BME280;9208;42.688;23.404;2023-05-23T05:59:15;95408.44;;;13.96;100.00
18167;BME280;9208;42.688;23.404;2023-05-23T06:01:41;95401.94;;;13.93;100.00
18167;BME280;9208;42.688;23.404;2023-05-23T06:04:06;95404.94;;;14.01;100.00
18167;BME280;9208;42.688;23.404;2023-05-23T06:06:32;95410.22;;;13.99;100.00
18167;BME280;9208;42.688;23.404;2023-05-23T06:08:58;95416.72;;;14.07;100.00
18167;BME280;9208;42.688;23.404;2023-05-23T06:11:23;95419.72;;;14.14;100.00
18167;BME280;9208;42.688;23.404;2023-05-23T06:13:48;95409.72;;;14.17;100.00
18167;BME280;9208;42.688;23.404;2023-05-23T06:16:14;95404.19;;;14.06;100.00
18167;BME280;9208;42.688;23.404;2023-05-23T06:18:39;95414.72;;;14.07;100.00
18167;BME280;9208;42.688;23.404;2023-05-23T06:21:05;95414.72;;;14.13;100.00
18167;BME280;9208;42.688;23.404;2023-05-23T06:23:31;95406.19;;;14.11;100.00
18167;BME280;9208;42.688;23.404;2023-05-23T06:25:57;95411.69;;;14.16;100.00
18167;BME280;9208;42.688;23.404;2023-05-23T06:28:23;95413.47;;;14.30;100.00
18167;BME280;9208;42.688;23.404;2023-05-23T06:30:49;95417.97;;;14.44;100.00
18167;BME280;9208;42.688;23.404;2023-05-23T06:33:15;95421.50;;;14.50;100.00
18167;BME280;9208;42.688;23.404;2023-05-23T06:35:41;95407.44;;;14.48;100.00
18167;BME280;9208;42.688;23.404;2023-05-23T06:38:07;95412.72;;;14.52;100.00
18167;BME280;9208;42.688;23.404;2023-05-23T06:40:32;95409.94;;;14.57;100.00
18167;BME280;9208;42.688;23.404;2023-05-23T06:42:57;95410.69;;;14.52;100.00
18167;BME280;9208;42.688;23.404;2023-05-23T06:45:23;95408.69;;;14.53;100.00
18167;BME280;9208;42.688;23.404;2023-05-23T06:47:48;95409.19;;;14.57;100.00
18167;BME280;9208;42.688;23.404;2023-05-23T06:50:14;95399.16;;;14.54;100.00
18167;BME280;9208;42.688;23.404;2023-05-23T06:52:39;95394.38;;;14.60;100.00
18167;BME280;9208;42.688;23.404;2023-05-23T06:55:07;95389.84;;;14.62;100.00
18167;BME280;9208;42.688;23.404;2023-05-23T06:57:32;95405.41;;;14.76;100.00
18167;BME280;9208;42.688;23.404;2023-05-23T06:59:58;95397.09;;;14.82;100.00
18167;BME280;9208;42.688;23.404;2023-05-23T07:02:23;95397.84;;;14.88;100.00
18167;BME280;9208;42.688;23.404;2023-05-23T07:04:48;95401.81;;;14.92;100.00
18167;BME280;9208;42.688;23.404;2023-05-23T07:07:14;95405.56;;;15.06;100.00
18167;BME280;9208;42.688;23.404;2023-05-23T07:09:39;95398.00;;;15.12;100.00
18167;BME280;9208;42.688;23.404;2023-05-23T07:12:05;95401.50;;;15.12;100.00
18167;BME280;9208;42.688;23.404;2023-05-23T07:14:31;95395.72;;;15.10;100.00
18167;BME280;9208;42.688;23.404;2023-05-23T07:16:56;95392.94;;;15.21;100.00
18167;BME280;9208;42.688;23.404;2023-05-23T07:19:22;95391.91;;;15.19;100.00
18167;BME280;9208;42.688;23.404;2023-05-23T07:21:47;95382.13;;;15.23;100.00
18167;BME280;9208;42.688;23.404;2023-05-23T07:24:12;95382.59;;;15.27;100.00
18167;BME280;9208;42.688;23.404;2023-05-23T07:26:38;95373.31;;;15.25;100.00
18167;BME280;9208;42.688;23.404;2023-05-23T07:29:03;95371.78;;;15.35;100.00
18167;BME280;9208;42.688;23.404;2023-05-23T07:31:30;95372.56;;;15.35;100.00
18167;BME280;9208;42.688;23.404;2023-05-23T07:33:55;95367.50;;;15.39;100.00
18167;BME280;9208;42.688;23.404;2023-05-23T07:36:23;95365.47;;;15.40;100.00
18167;BME280;9208;42.688;23.404;2023-05-23T07:38:48;95365.69;;;15.47;100.00
18167;BME280;9208;42.688;23.404;2023-05-23T07:41:14;95363.19;;;15.44;100.00
18167;BME280;9208;42.688;23.404;2023-05-23T07:43:39;95361.44;;;15.46;100.00
18167;BME280;9208;42.688;23.404;2023-05-23T07:46:05;95354.31;;;15.56;100.00
18167;BME280;9208;42.688;23.404;2023-05-23T07:48:30;95367.13;;;15.59;100.00
18167;BME280;9208;42.688;23.404;2023-05-23T07:50:56;95362.38;;;15.60;100.00
18167;BME280;9208;42.688;23.404;2023-05-23T07:53:21;95356.84;;;15.60;100.00
18167;BME280;9208;42.688;23.404;2023-05-23T07:55:47;95361.56;;;15.65;100.00
18167;BME280;9208;42.688;23.404;2023-05-23T07:58:12;95362.72;;;15.80;100.00
18167;BME280;9208;42.688;23.404;2023-05-23T08:00:37;95364.22;;;15.81;100.00
18167;BME280;9208;42.688;23.404;2023-05-23T08:03:05;95352.66;;;15.83;100.00
18167;BME280;9208;42.688;23.404;2023-05-23T08:05:31;95346.06;;;15.86;100.00
18167;BME280;9208;42.688;23.404;2023-05-23T08:07:56;95347.06;;;15.88;100.00
18167;BME280;9208;42.688;23.404;2023-05-23T08:10:22;95340.00;;;15.93;100.00
18167;BME280;9208;42.688;23.404;2023-05-23T08:12:47;95352.94;;;16.09;100.00
18167;BME280;9208;42.688;23.404;2023-05-23T08:15:16;95348.06;;;16.20;100.00
18167;BME280;9208;42.688;23.404;2023-05-23T08:17:41;95347.19;;;16.31;100.00
18167;BME280;9208;42.688;23.404;2023-05-23T08:20:07;95348.88;;;16.45;100.00
18167;BME280;9208;42.688;23.404;2023-05-23T08:22:36;95348.97;;;16.58;100.00
18167;BME280;9208;42.688;23.404;2023-05-23T08:25:02;95352.66;;;16.66;100.00
18167;BME280;9208;42.688;23.404;2023-05-23T08:27:28;95342.72;;;16.76;100.00
18167;BME280;9208;42.688;23.404;2023-05-23T08:29:54;95340.66;;;16.82;100.00
18167;BME280;9208;42.688;23.404;2023-05-23T08:32:19;95345.59;;;16.89;100.00
18167;BME280;9208;42.688;23.404;2023-05-23T08:34:45;95344.25;;;16.95;100.00
18167;BME280;9208;42.688;23.404;2023-05-23T08:37:10;95336.50;;;17.12;100.00
18167;BME280;9208;42.688;23.404;2023-05-23T08:39:36;95337.34;;;17.26;100.00
18167;BME280;9208;42.688;23.404;2023-05-23T08:42:01;95343.53;;;17.32;100.00
18167;BME280;9208;42.688;23.404;2023-05-23T08:44:27;95332.00;;;17.28;100.00
18167;BME280;9208;42.688;23.404;2023-05-23T08:46:52;95342.72;;;17.37;100.00
18167;BME280;9208;42.688;23.404;2023-05-23T08:49:18;95333.84;;;17.44;100.00
18167;BME280;9208;42.688;23.404;2023-05-23T08:51:45;95339.28;;;17.49;100.00
18167;BME280;9208;42.688;23.404;2023-05-23T08:54:11;95333.69;;;17.55;100.00
18167;BME280;9208;42.688;23.404;2023-05-23T08:56:37;95332.44;;;17.69;100.00
18167;BME280;9208;42.688;23.404;2023-05-23T08:59:03;95325.78;;;17.77;100.00
18167;BME280;9208;42.688;23.404;2023-05-23T09:01:30;95336.38;;;17.92;100.00
18167;BME280;9208;42.688;23.404;2023-05-23T09:03:58;95331.09;;;18.07;100.00
18167;BME280;9208;42.688;23.404;2023-05-23T09:06:29;95322.59;;;18.18;100.00
18167;BME280;9208;42.688;23.404;2023-05-23T09:08:55;95325.38;;;18.31;100.00
18167;BME280;9208;42.688;23.404;2023-05-23T09:11:20;95315.81;;;18.45;100.00
18167;BME280;9208;42.688;23.404;2023-05-23T09:13:46;95326.75;;;18.56;100.00
18167;BME280;9208;42.688;23.404;2023-05-23T09:16:12;95314.56;;;18.59;100.00
18167;BME280;9208;42.688;23.404;2023-05-23T09:18:41;95311.34;;;18.68;100.00
18167;BME280;9208;42.688;23.404;2023-05-23T09:21:08;95306.03;;;18.83;100.00
18167;BME280;9208;42.688;23.404;2023-05-23T09:23:38;95317.50;;;19.13;100.00
18167;BME280;9208;42.688;23.404;2023-05-23T09:26:06;95312.47;;;19.38;100.00
18167;BME280;9208;42.688;23.404;2023-05-23T09:28:32;95309.13;;;19.52;100.00
18167;BME280;9208;42.688;23.404;2023-05-23T09:31:02;95320.84;;;19.58;100.00
18167;BME280;9208;42.688;23.404;2023-05-23T09:33:48;95316.72;;;19.72;100.00
18167;BME280;9208;42.688;23.404;2023-05-23T09:36:18;95310.66;;;19.94;100.00
18167;BME280;9208;42.688;23.404;2023-05-23T09:38:45;95306.00;;;20.10;100.00
18167;BME280;9208;42.688;23.404;2023-05-23T09:41:10;95316.09;;;20.20;100.00
18167;BME280;9208;42.688;23.404;2023-05-23T09:43:48;95326.22;;;20.31;100.00
18167;BME280;9208;42.688;23.404;2023-05-23T09:46:14;95299.09;;;20.31;100.00
18167;BME280;9208;42.688;23.404;2023-05-23T09:48:45;95323.06;;;20.55;100.00
18167;BME280;9208;42.688;23.404;2023-05-23T09:51:10;95307.41;;;20.72;100.00
18167;BME280;9208;42.688;23.404;2023-05-23T09:53:36;95310.09;;;20.85;100.00
18167;BME280;9208;42.688;23.404;2023-05-23T09:56:02;95326.34;;;20.94;100.00
18167;BME280;9208;42.688;23.404;2023-05-23T09:58:29;95285.09;;;21.00;100.00
18167;BME280;9208;42.688;23.404;2023-05-23T10:00:55;95308.34;;;21.03;100.00
18167;BME280;9208;42.688;23.404;2023-05-23T10:03:34;95270.53;;;21.22;100.00
18167;BME280;9208;42.688;23.404;2023-05-23T10:06:17;95287.31;;;21.45;100.00
18167;BME280;9208;42.688;23.404;2023-05-23T10:08:54;95311.03;;;21.66;100.00
18167;BME280;9208;42.688;23.404;2023-05-23T10:14:01;95307.38;;;22.01;100.00
18167;BME280;9208;42.688;23.404;2023-05-23T10:19:02;95318.19;;;22.20;100.00
18167;BME280;9208;42.688;23.404;2023-05-23T10:21:37;95314.09;;;22.28;100.00
18167;BME280;9208;42.688;23.404;2023-05-23T10:24:06;95309.63;;;22.40;99.23
18167;BME280;9208;42.688;23.404;2023-05-23T10:26:32;95319.34;;;22.47;96.44
18167;BME280;9208;42.688;23.404;2023-05-23T10:28:57;95312.28;;;22.53;96.77
18167;BME280;9208;42.688;23.404;2023-05-23T10:31:25;95319.34;;;22.62;95.17
18167;BME280;9208;42.688;23.404;2023-05-23T10:34:01;95345.97;;;22.70;91.66
18167;BME280;9208;42.688;23.404;2023-05-23T10:37:01;95401.06;;;22.40;82.26
18167;BME280;9208;42.688;23.404;2023-05-23T10:45:18;95398.25;;;22.25;74.88
18167;BME280;9208;42.688;23.404;2023-05-23T10:47:45;95373.13;;;22.32;75.69
18167;BME280;9208;42.688;23.404;2023-05-23T10:50:29;95360.84;;;22.43;77.05
18167;BME280;9208;42.688;23.404;2023-05-23T10:53:03;95369.06;;;22.41;75.58
18167;BME280;9208;42.688;23.404;2023-05-23T10:55:33;95364.75;;;22.40;74.75
18167;BME280;9208;42.688;23.404;2023-05-23T10:58:14;95343.94;;;22.48;77.13
18167;BME280;9208;42.688;23.404;2023-05-23T11:00:50;95368.53;;;22.57;72.53
18167;BME280;9208;42.688;23.404;2023-05-23T11:03:16;95403.72;;;22.60;69.62
18167;BME280;9208;42.688;23.404;2023-05-23T11:05:47;95367.78;;;22.49;72.83
18167;BME280;9208;42.688;23.404;2023-05-23T11:08:18;95377.28;;;22.54;71.30
18167;BME280;9208;42.688;23.404;2023-05-23T11:10:52;95370.75;;;22.51;71.40
18167;BME280;9208;42.688;23.404;2023-05-23T11:13:21;95357.91;;;22.48;72.33
18167;BME280;9208;42.688;23.404;2023-05-23T11:15:47;95387.34;;;22.57;69.53
18167;BME280;9208;42.688;23.404;2023-05-23T11:18:25;95413.78;;;22.56;67.18
18167;BME280;9208;42.688;23.404;2023-05-23T11:20:51;95410.63;;;22.59;66.36
18167;BME280;9208;42.688;23.404;2023-05-23T11:23:18;95408.97;;;22.64;67.10
18167;BME280;9208;42.688;23.404;2023-05-23T11:25:47;95403.91;;;22.62;67.06
18167;BME280;9208;42.688;23.404;2023-05-23T11:28:14;95388.09;;;22.65;68.00
18167;BME280;9208;42.688;23.404;2023-05-23T11:30:39;95393.84;;;22.67;66.86
18167;BME280;9208;42.688;23.404;2023-05-23T11:33:12;95390.50;;;22.76;67.02
18167;BME280;9208;42.688;23.404;2023-05-23T11:35:47;95373.75;;;22.83;68.16
18167;BME280;9208;42.688;23.404;2023-05-23T11:38:15;95364.03;;;22.92;69.42
18167;BME280;9208;42.688;23.404;2023-05-23T11:40:42;95369.63;;;22.84;66.50
18167;BME280;9208;42.688;23.404;2023-05-23T11:43:10;95368.50;;;22.87;67.25
18167;BME280;9208;42.688;23.404;2023-05-23T11:45:37;95344.63;;;22.94;69.05
18167;BME280;9208;42.688;23.404;2023-05-23T11:48:06;95369.59;;;22.99;65.71
18167;BME280;9208;42.688;23.404;2023-05-23T11:50:32;95392.88;;;23.09;64.79
18167;BME280;9208;42.688;23.404;2023-05-23T11:52:58;95380.03;;;23.14;65.60
18167;BME280;9208;42.688;23.404;2023-05-23T11:55:24;95359.13;;;23.30;67.58
18167;BME280;9208;42.688;23.404;2023-05-23T11:57:49;95353.53;;;23.37;66.76
18167;BME280;9208;42.688;23.404;2023-05-23T12:00:16;95359.81;;;23.45;66.34
18167;BME280;9208;42.688;23.404;2023-05-23T12:02:44;95359.81;;;23.53;66.48
18167;BME280;9208;42.688;23.404;2023-05-23T12:05:14;95346.34;;;23.59;67.17
18167;BME280;9208;42.688;23.404;2023-05-23T12:07:47;95342.75;;;23.66;66.67
18167;BME280;9208;42.688;23.404;2023-05-23T12:10:17;95362.56;;;23.60;66.46
18167;BME280;9208;42.688;23.404;2023-05-23T12:12:43;95346.31;;;23.66;67.18
18167;BME280;9208;42.688;23.404;2023-05-23T12:15:12;95342.94;;;23.68;66.41
18167;BME280;9208;42.688;23.404;2023-05-23T12:17:38;95346.81;;;23.72;65.85
18167;BME280;9208;42.688;23.404;2023-05-23T12:20:05;95342.75;;;23.73;65.67
18167;BME280;9208;42.688;23.404;2023-05-23T12:22:31;95354.81;;;23.83;63.55
18167;BME280;9208;42.688;23.404;2023-05-23T12:24:56;95379.50;;;23.77;61.92
18167;BME280;9208;42.688;23.404;2023-05-23T12:27:29;95365.81;;;23.81;62.63
18167;BME280;9208;42.688;23.404;2023-05-23T12:30:14;95372.00;;;23.80;61.53
18167;BME280;9208;42.688;23.404;2023-05-23T12:32:41;95440.34;;;23.69;53.58
18167;BME280;9208;42.688;23.404;2023-05-23T12:35:08;95468.94;;;23.60;51.69
18167;BME280;9208;42.688;23.404;2023-05-23T12:37:42;95462.38;;;23.65;52.16
18167;BME280;9208;42.688;23.404;2023-05-23T12:40:17;95464.19;;;23.78;51.95
18167;BME280;9208;42.688;23.404;2023-05-23T12:42:54;95462.72;;;23.77;51.45
18167;BME280;9208;42.688;23.404;2023-05-23T12:45:31;95455.84;;;23.63;51.86
18167;BME280;9208;42.688;23.404;2023-05-23T12:47:58;95468.94;;;23.60;49.34
18167;BME280;9208;42.688;23.404;2023-05-23T12:50:23;95471.00;;;23.52;49.02
18167;BME280;9208;42.688;23.404;2023-05-23T12:52:49;95483.66;;;23.68;46.74
18167;BME280;9208;42.688;23.404;2023-05-23T12:55:14;95480.84;;;23.68;46.66
18167;BME280;9208;42.688;23.404;2023-05-23T12:57:43;95472.25;;;23.74;46.72
18167;BME280;9208;42.688;23.404;2023-05-23T13:00:09;95457.50;;;23.73;48.34
18167;BME280;9208;42.688;23.404;2023-05-23T13:02:35;95439.78;;;23.71;49.05
18167;BME280;9208;42.688;23.404;2023-05-23T13:05:02;95444.81;;;23.72;47.77
18167;BME280;9208;42.688;23.404;2023-05-23T13:07:27;95424.47;;;23.72;49.46
18167;BME280;9208;42.688;23.404;2023-05-23T13:09:53;95415.00;;;23.60;48.59
18167;BME280;9208;42.688;23.404;2023-05-23T13:12:18;95415.31;;;23.71;49.28